Etusivu
METAR-TAF:

METAR-TAF

Lentoasemat :

Ambato, Ecuador

Leveyspiiri: 01-12-43S, Pituuspiiri: 078-34-28W, korkeus merenpinnasta: 2591 m

Tämänhetkinen sää

Tämä raportti tehtiin 28 minuuttia sitten, kello 20.00 UTC
Tuuli 5 kn etelästä/lounaasta
Lämpötila 20°C
Kosteus 56%
Ilmanpaine 1026 hPa
Näkyvyys 10 km tai enemmän
Hajanaisia pilviä 3000 ft:n korkeudessa
Hajanaisia pilviä 10000 ft:n korkeudessa

METAR: SEAM 122000Z 20005KT 9999 SCT030 SCT100 20/11 Q1026

Aika: 15:28 (20:28 UTC)


TAF: puuttuu

Säähavainnot ja -ennusteet yli 4000 lentoasemalta (METAR- ja TAF-raportit).

Käytössä olevat sääasemat on merkitty karttaan keltaisilla ja punaisilla pisteillä.

Aseta hiiri pisteen päälle nähdäksesi sääaseman nimen.

Klikkaa sitten nähdäksesi säähavainnot ja -ennusteet.

Kartan vaihtaminen: klikkaa mustalla rastilla varustettuja vihreitä pisteitä, niin voit zoomata sisään; viivalla varustettua vihreää pistettä, niin voit zoomata ulos tai vihreitä nuolia, niin pääset viereisille kartoille.


METAR-TAF: